Whitefish Bay, Wisconsin
Current Conditions -  °F | °C
As of 4:35 AM on Saturday 25 Oct 2014 (Local Time) from KMWC Reporting Station
Haze Haze  
Wind Chill: 55°   Ceiling: 1000
Heat Index: 55°   Visibility: 5mi
Dew Point: 52°   Wind: 10mph
Humidity: 88%   Direction: 270°W
Pressure: 29.86"   Gusts: NA
Location:  43.1576°N, 87.9144°W
Report Text: KMWC 250935Z AUTO 27009KT 5SM BR BKN010 13/11 A2986 RMK AO2
Loading
Personal Weather Stations






























Interactive Weather Map
Tropical Storm Tracking
New forecast layout! Learn more

10-Day Weather Forecast

Advertisements
Track Severe Weather on mobile